Time;durP1;ratioP1;P1;durP2;ratioP2;P2;SDS_P1;SDS_P2;PMS_P1;PMS_P2;Temp;Humidity;BMP_temperature;BMP_pressure;BME280_temperature;BME280_humidity;BME280_pressure;Samples;Min_cycle;Max_cycle;Signal;HPM_P1;HPM_P2
2022/05/10 00:01:53;;;;;;;1.20;0.70;;;;;;;29.36;16.74;99005.56;5062197;28;20417;-79
2022/05/10 00:04:20;;;;;;;0.80;0.50;;;;;;;29.24;16.94;99003.50;5064746;28;20035;-79
2022/05/10 00:06:48;;;;;;;0.82;0.50;;;;;;;28.93;17.17;99005.16;5066252;28;20094;-79
2022/05/10 00:09:19;;;;;;;0.85;0.50;;;;;;;28.73;17.34;98998.81;5063059;28;20169;-78
2022/05/10 00:11:45;;;;;;;4.38;1.75;;;;;;;28.47;17.99;98997.84;5060083;28;20032;-78
2022/05/10 00:14:12;;;;;;;1.48;0.77;;;;;;;28.25;18.13;99004.47;5061736;28;20051;-78
2022/05/10 00:16:43;;;;;;;1.20;0.60;;;;;;;28.10;18.00;99006.84;5060580;28;20278;-78
2022/05/10 00:19:13;;;;;;;1.92;0.57;;;;;;;28.16;18.03;99004.28;5062810;28;20363;-77
2022/05/10 00:21:40;;;;;;;0.80;0.70;;;;;;;28.16;18.02;99005.09;5054503;28;20297;-78
2022/05/10 00:24:06;;;;;;;1.40;0.70;;;;;;;28.25;17.86;99004.47;5065518;28;20120;-78
2022/05/10 00:26:33;;;;;;;1.55;0.80;;;;;;;28.37;17.69;99000.94;5063111;28;20033;-77
2022/05/10 00:29:01;;;;;;;2.50;0.77;;;;;;;28.36;17.98;99002.97;5067016;28;20115;-77
2022/05/10 00:31:28;;;;;;;2.60;0.60;;;;;;;28.37;17.97;99003.78;5066755;28;20029;-78
2022/05/10 00:33:54;;;;;;;1.38;0.70;;;;;;;28.08;18.36;98998.81;5066251;28;20432;-77
2022/05/10 00:36:23;;;;;;;1.58;0.70;;;;;;;28.20;18.04;99002.16;5038101;28;20036;-77
2022/05/10 00:38:50;;;;;;;1.67;0.70;;;;;;;28.33;18.26;98998.22;5058718;28;20036;-77
2022/05/10 00:41:27;;;;;;;2.65;0.90;;;;;;;28.47;17.57;98992.19;5066619;28;20043;-77
2022/05/10 00:44:04;;;;;;;4.22;0.85;;;;;;;28.57;17.42;98991.13;5067532;28;21236;-77
2022/05/10 00:46:38;;;;;;;1.67;0.60;;;;;;;28.52;17.53;98994.50;5064515;28;20033;-77
2022/05/10 00:49:08;;;;;;;2.08;1.00;;;;;;;28.58;18.06;98995.56;5067169;28;20390;-77
2022/05/10 00:51:44;;;;;;;2.20;0.83;;;;;;;28.17;17.84;98994.59;5068031;28;20037;-78
2022/05/10 00:54:19;;;;;;;2.05;0.80;;;;;;;28.06;18.12;98984.34;5067985;28;20401;-78
2022/05/10 00:56:56;;;;;;;2.00;1.05;;;;;;;28.13;17.92;98989.03;5067948;28;20028;-77
2022/05/10 00:59:30;;;;;;;1.30;0.90;;;;;;;28.21;17.79;98986.81;5066338;28;20394;-77
2022/05/10 01:02:06;;;;;;;3.30;0.85;;;;;;;28.33;17.75;98986.13;5062036;28;20116;-78
2022/05/10 01:04:42;;;;;;;1.85;0.90;;;;;;;28.39;17.99;98984.34;5062138;28;20029;-78
2022/05/10 01:07:29;;;;;;;3.38;0.90;;;;;;;28.44;17.63;98978.97;5063354;28;20091;-78
2022/05/10 01:10:01;;;;;;;2.30;0.75;;;;;;;28.18;17.65;98977.22;5064913;28;20094;-78
2022/05/10 01:12:47;;;;;;;3.90;0.82;;;;;;;28.24;17.84;98971.84;5043363;28;20405;-78
2022/05/10 01:15:17;;;;;;;2.47;0.88;;;;;;;28.20;17.79;98979.56;5060489;28;20080;-77
2022/05/10 01:17:46;;;;;;;2.85;1.00;;;;;;;28.08;17.97;98964.13;5066452;28;20197;-77
2022/05/10 01:20:17;;;;;;;2.08;1.02;;;;;;;28.11;18.02;98970.94;5065934;28;20032;-78
2022/05/10 01:23:06;;;;;;;;;;;;;;;27.96;18.88;98971.25;5067111;28;20040;-78
2022/05/10 01:25:58;;;;;;;4.20;1.00;;;;;;;28.11;17.62;98968.09;5060117;28;19922;-78
2022/05/10 01:28:40;;;;;;;1.42;1.00;;;;;;;28.19;17.63;98966.72;5066700;28;20044;-78
2022/05/10 01:31:14;;;;;;;2.20;1.05;;;;;;;28.14;17.72;98975.72;5070229;28;20036;-78
2022/05/10 01:34:01;;;;;;;1.25;0.90;;;;;;;28.18;18.00;98973.59;5065205;28;20701;-78
2022/05/10 01:36:41;;;;;;;2.80;1.00;;;;;;;28.19;17.64;98973.16;5065682;28;20028;-78
2022/05/10 01:39:32;;;;;;;2.83;0.75;;;;;;;27.96;17.64;98968.41;5064868;28;20025;-78
2022/05/10 01:42:09;;;;;;;0.98;0.70;;;;;;;27.61;18.16;98974.09;5067203;28;20099;-78
2022/05/10 01:44:53;;;;;;;1.48;0.95;;;;;;;27.28;18.89;98964.69;5066666;28;20059;-78
2022/05/10 01:47:45;;;;;;;2.13;0.82;;;;;;;27.08;18.75;98967.50;5067687;28;20517;-78
2022/05/10 01:50:25;;;;;;;1.35;1.00;;;;;;;27.13;18.61;98971.84;5063033;28;20024;-78
2022/05/10 01:53:11;;;;;;;5.07;0.90;;;;;;;26.99;18.83;98978.56;5066540;28;20036;-78
2022/05/10 01:55:44;;;;;;;1.35;0.95;;;;;;;27.19;18.83;98976.53;5065278;28;20036;-78
2022/05/10 01:58:22;;;;;;;1.23;0.70;;;;;;;27.27;18.41;98965.91;5067343;28;20070;-79
2022/05/10 02:01:10;;;;;;;1.63;0.95;;;;;;;27.11;18.62;98975.13;5069167;28;20119;-78
2022/05/10 02:03:53;;;;;;;1.40;0.90;;;;;;;26.97;19.07;98975.41;5067426;28;20642;-78
2022/05/10 02:06:31;;;;;;;1.10;0.80;;;;;;;27.02;18.67;98972.06;5063599;28;20037;-78
2022/05/10 02:09:20;;;;;;;1.60;0.85;;;;;;;26.90;19.07;98967.06;5047638;28;20025;-78
2022/05/10 02:12:17;;;;;;;1.60;0.93;;;;;;;27.05;18.44;98967.59;5060885;28;20041;-79
2022/05/10 02:15:18;;;;;;;2.92;0.82;;;;;;;26.91;18.83;98965.06;5064474;28;20049;-79
2022/05/10 02:17:50;;;;;;;1.77;0.90;;;;;;;26.96;18.82;98968.16;5048491;28;20045;-78
2022/05/10 02:20:29;;;;;;;2.45;1.00;;;;;;;27.33;18.22;98958.53;5062113;28;20029;-78
2022/05/10 02:23:04;;;;;;;2.75;1.05;;;;;;;26.82;19.02;98968.44;5068426;28;20124;-78
2022/05/10 02:25:34;;;;;;;1.95;0.95;;;;;;;26.66;18.85;98968.31;5064719;28;20039;-78
2022/05/10 02:28:32;;;;;;;1.05;0.88;;;;;;;26.70;18.94;98961.38;5066348;28;20520;-78
2022/05/10 02:31:03;;;;;;;1.23;0.90;;;;;;;26.61;18.91;98949.88;5065009;28;20039;-78
2022/05/10 02:33:31;;;;;;;1.52;0.80;;;;;;;27.00;18.55;98948.38;5064672;28;20028;-77
2022/05/10 02:35:59;;;;;;;1.92;0.88;;;;;;;26.84;18.85;98942.66;5065547;28;20107;-77
2022/05/10 02:38:35;;;;;;;1.55;1.10;;;;;;;26.83;18.82;98947.47;5066778;28;20036;-77
2022/05/10 02:41:15;;;;;;;1.33;0.85;;;;;;;27.19;18.67;98939.13;5067072;28;20103;-77
2022/05/10 02:43:49;;;;;;;1.10;0.90;;;;;;;27.33;18.78;98944.44;5062739;28;20112;-77
2022/05/10 02:46:16;;;;;;;2.83;1.02;;;;;;;27.47;18.02;98949.78;5064667;28;20067;-77
2022/05/10 02:48:44;;;;;;;1.88;0.70;;;;;;;27.21;18.46;98948.69;5064177;28;20059;-76
2022/05/10 02:51:10;;;;;;;1.02;0.73;;;;;;;27.18;18.66;98946.78;5061345;28;20462;-77
2022/05/10 02:53:36;;;;;;;1.45;0.82;;;;;;;27.42;18.23;98953.16;5070569;28;20037;-77
2022/05/10 02:56:08;;;;;;;0.82;0.75;;;;;;;27.59;18.05;98951.94;5066426;28;20028;-77
2022/05/10 02:58:37;;;;;;;1.38;0.90;;;;;;;27.52;17.90;98949.28;5069254;28;20043;-78
2022/05/10 03:01:29;;;;;;;1.95;0.88;;;;;;;27.42;17.76;98950.34;5066006;28;20028;-78
2022/05/10 03:03:56;;;;;;;2.50;0.80;;;;;;;27.42;17.93;98953.16;5068450;28;20116;-78
2022/05/10 03:06:25;;;;;;;0.80;0.65;;;;;;;27.53;17.68;98945.25;5064392;28;20060;-78
2022/05/10 03:08:51;;;;;;;1.58;0.90;;;;;;;27.59;17.57;98951.16;5062766;28;20109;-78
2022/05/10 03:11:18;;;;;;;3.40;0.95;;;;;;;27.67;17.32;98946.94;5060565;28;20040;-78
2022/05/10 03:13:45;;;;;;;1.58;0.77;;;;;;;27.73;17.42;98940.34;5063402;28;20056;-78
2022/05/10 03:16:12;;;;;;;1.00;0.80;;;;;;;27.78;17.27;98944.66;5062779;28;20111;-78
2022/05/10 03:18:38;;;;;;;2.88;1.00;;;;;;;27.72;17.58;98941.59;5064133;28;20045;-78
2022/05/10 03:21:04;;;;;;;0.90;0.70;;;;;;;27.53;17.74;98936.78;5063982;28;20120;-78
2022/05/10 03:23:31;;;;;;;1.50;0.85;;;;;;;27.44;17.71;98947.06;5067913;28;20115;-78
2022/05/10 03:25:57;;;;;;;3.75;0.98;;;;;;;27.43;17.61;98934.97;5063098;28;20066;-78
2022/05/10 03:28:24;;;;;;;1.65;0.82;;;;;;;27.59;17.59;98932.19;5062249;28;20036;-78
2022/05/10 03:30:51;;;;;;;1.92;0.70;;;;;;;27.65;17.52;98924.81;5062681;28;20693;-78
2022/05/10 03:33:18;;;;;;;2.55;0.68;;;;;;;27.53;17.68;98922.69;5059641;28;20038;-78
2022/05/10 03:35:44;;;;;;;2.58;0.93;;;;;;;27.73;17.77;98925.44;5059516;28;20706;-78
2022/05/10 03:38:10;;;;;;;0.93;0.65;;;;;;;27.82;17.15;98926.41;5064508;28;20044;-78
2022/05/10 03:40:36;;;;;;;2.00;0.80;;;;;;;27.90;17.72;98927.03;5061741;28;20769;-78
2022/05/10 03:43:02;;;;;;;0.80;0.57;;;;;;;27.74;17.66;98924.19;5062975;28;20038;-78
2022/05/10 03:45:29;;;;;;;1.23;0.80;;;;;;;27.51;18.15;98922.31;5059242;28;20482;-78
2022/05/10 03:47:55;;;;;;;1.95;0.80;;;;;;;27.67;17.64;98911.06;5061787;28;20474;-78
2022/05/10 03:50:23;;;;;;;1.83;0.80;;;;;;;27.83;17.68;98918.75;5066341;28;20037;-78
2022/05/10 03:52:50;;;;;;;1.42;0.85;;;;;;;28.06;17.69;98913.75;5065778;28;20045;-78
2022/05/10 03:55:22;;;;;;;0.90;0.63;;;;;;;28.32;17.07;98916.75;5066455;28;20482;-78
2022/05/10 03:57:49;;;;;;;0.77;0.65;;;;;;;28.10;17.63;98910.06;5068335;28;20028;-77
2022/05/10 04:00:20;;;;;;;1.67;0.68;;;;;;;27.67;18.08;98907.44;5044613;28;20198;-78
2022/05/10 04:02:46;;;;;;;3.20;1.02;;;;;;;27.33;19.04;98913.41;5063619;28;20473;-78
2022/05/10 04:05:14;;;;;;;1.77;0.80;;;;;;;27.34;19.22;98915.00;5060099;28;20060;-78
2022/05/10 04:07:41;;;;;;;9.20;1.15;;;;;;;27.73;18.98;98914.13;5062354;28;20190;-79
2022/05/10 04:10:08;;;;;;;2.00;0.90;;;;;;;27.82;19.29;98912.28;5063916;28;20021;-79
2022/05/10 04:12:37;;;;;;;1.02;0.93;;;;;;;27.98;18.96;98908.72;5064052;28;20036;-78
2022/05/10 04:15:04;;;;;;;1.20;1.08;;;;;;;28.08;19.35;98911.28;5061339;28;20552;-78
2022/05/10 04:17:30;;;;;;;2.20;1.30;;;;;;;28.14;19.15;98905.09;5070010;28;20028;-77
2022/05/10 04:19:56;;;;;;;2.75;1.33;;;;;;;28.02;19.28;98913.06;5067775;28;20094;-78
2022/05/10 04:22:23;;;;;;;1.20;1.00;;;;;;;27.80;19.49;98914.78;5066442;28;20051;-77
2022/05/10 04:24:49;;;;;;;2.35;1.58;;;;;;;27.80;19.77;98913.97;5060257;28;20045;-77
2022/05/10 04:27:15;;;;;;;2.35;1.73;;;;;;;27.83;19.69;98913.91;5063066;28;20025;-77
2022/05/10 04:29:41;;;;;;;1.95;1.05;;;;;;;27.86;19.80;98924.31;5066857;28;20040;-77
2022/05/10 04:32:07;;;;;;;1.85;1.42;;;;;;;27.87;19.62;98920.25;5067914;28;20033;-78
2022/05/10 04:34:34;;;;;;;2.13;1.20;;;;;;;27.66;19.73;98920.75;5065075;28;20782;-78
2022/05/10 04:37:00;;;;;;;2.47;1.10;;;;;;;27.80;19.95;98928.88;5059312;28;20036;-77
2022/05/10 04:41:24;;;;;;;3.03;1.30;;;;;;;28.02;19.66;98924.34;5062675;28;20085;-78
2022/05/10 04:42:13;;;;;;;7.10;1.38;;;;;;;28.26;20.59;98927.00;5063237;28;20098;-78
2022/05/10 04:44:39;;;;;;;2.90;1.50;;;;;;;28.59;20.34;98923.69;5069394;28;20032;-79
2022/05/10 04:47:05;;;;;;;1.58;0.93;;;;;;;29.03;19.41;98918.44;5070232;28;20036;-79
2022/05/10 04:49:31;;;;;;;2.33;1.63;;;;;;;29.29;19.24;98918.09;5061614;28;20167;-78
2022/05/10 04:51:57;;;;;;;2.95;1.10;;;;;;;29.43;19.41;98922.50;5066550;28;20040;-78
2022/05/10 04:54:23;;;;;;;3.08;1.30;;;;;;;29.52;19.26;98916.19;5070103;28;20032;-78
2022/05/10 04:56:49;;;;;;;2.22;1.25;;;;;;;29.54;19.34;98916.53;5069523;28;20028;-78
2022/05/10 04:59:15;;;;;;;1.27;1.10;;;;;;;29.57;19.46;98916.41;5064906;28;20056;-78
2022/05/10 05:01:42;;;;;;;1.30;0.95;;;;;;;29.69;18.81;98906.34;5068220;28;20086;-78
2022/05/10 05:04:08;;;;;;;2.15;1.08;;;;;;;29.66;17.65;98908.06;5071483;28;20037;-77
2022/05/10 05:06:37;;;;;;;2.38;1.00;;;;;;;29.60;17.86;98917.56;5061185;28;20109;-77
2022/05/10 05:09:03;;;;;;;3.08;1.13;;;;;;;29.64;19.06;98913.38;5054655;28;20037;-76
2022/05/10 05:11:29;;;;;;;2.45;1.02;;;;;;;30.32;17.75;98915.59;5047531;28;20043;-76
2022/05/10 05:13:55;;;;;;;2.05;1.20;;;;;;;30.36;17.89;98913.50;5070990;28;20383;-77
2022/05/10 05:16:22;;;;;;;1.05;0.80;;;;;;;30.46;17.41;98909.47;5071323;28;20161;-77
2022/05/10 05:18:48;;;;;;;3.22;1.02;;;;;;;30.37;17.81;98912.22;5071444;28;20036;-76
2022/05/10 05:21:14;;;;;;;1.52;1.05;;;;;;;30.76;18.18;98913.66;5072338;28;20037;-76
2022/05/10 05:23:40;;;;;;;4.22;1.15;;;;;;;31.21;18.10;98904.72;5073374;28;20106;-77
2022/05/10 05:26:07;;;;;;;2.08;1.27;;;;;;;30.83;17.46;98907.75;5054108;28;20056;-78
2022/05/10 05:28:33;;;;;;;1.52;1.23;;;;;;;30.33;17.46;98905.09;5074321;28;20391;-78
2022/05/10 05:30:59;;;;;;;1.30;1.15;;;;;;;29.98;18.09;98907.84;5070195;28;20060;-78
2022/05/10 05:33:26;;;;;;;3.22;1.42;;;;;;;29.99;18.65;98914.31;5074331;28;20029;-78
2022/05/10 05:35:52;;;;;;;1.00;0.80;;;;;;;30.12;18.60;98903.75;5071167;28;20056;-78
2022/05/10 05:38:18;;;;;;;2.50;1.27;;;;;;;30.14;19.44;98911.78;5074225;28;20086;-78
2022/05/10 05:40:44;;;;;;;1.38;1.00;;;;;;;29.68;19.21;98913.28;5069488;28;20042;-78
2022/05/10 05:43:17;;;;;;;1.38;1.02;;;;;;;29.99;19.45;98912.25;5070529;28;20063;-78
2022/05/10 05:45:44;;;;;;;1.33;1.20;;;;;;;30.22;19.38;98918.81;5069904;28;20249;-78
2022/05/10 05:48:10;;;;;;;1.15;0.80;;;;;;;30.60;18.18;98920.31;5059376;28;20028;-78
2022/05/10 05:50:37;;;;;;;2.63;0.93;;;;;;;30.86;18.21;98918.16;5068479;28;20024;-78
2022/05/10 05:53:04;;;;;;;1.40;1.10;;;;;;;31.26;18.46;98919.13;5073520;28;20068;-78
2022/05/10 05:55:30;;;;;;;3.13;0.98;;;;;;;31.96;17.76;98923.28;5072887;28;20032;-78
2022/05/10 05:57:57;;;;;;;3.22;1.85;;;;;;;32.61;17.25;98917.31;5072113;28;20482;-78
2022/05/10 06:00:25;;;;;;;2.03;1.42;;;;;;;32.27;17.66;98926.09;5072063;28;20044;-78
2022/05/10 06:02:52;;;;;;;1.92;0.93;;;;;;;32.02;17.42;98918.63;5068456;28;20550;-78
2022/05/10 06:05:20;;;;;;;0.80;0.80;;;;;;;32.39;17.46;98917.44;5055378;28;20469;-78
2022/05/10 06:07:46;;;;;;;0.98;0.75;;;;;;;32.73;17.26;98920.03;5069677;28;20486;-78
2022/05/10 06:10:13;;;;;;;1.80;1.10;;;;;;;32.99;17.32;98917.66;5071189;28;20028;-78
2022/05/10 06:12:41;;;;;;;1.42;1.10;;;;;;;33.00;17.52;98916.38;5070861;28;20045;-78
2022/05/10 06:15:11;;;;;;;3.17;0.75;;;;;;;33.01;16.87;98911.47;5073254;28;20107;-78
2022/05/10 06:17:41;;;;;;;2.15;0.88;;;;;;;32.86;17.08;98910.53;5069990;28;20524;-78
2022/05/10 06:20:10;;;;;;;1.00;0.70;;;;;;;32.60;17.45;98910.06;5067620;28;20070;-78
2022/05/10 06:22:36;;;;;;;1.40;0.82;;;;;;;32.83;17.20;98912.28;5071683;28;20060;-78
2022/05/10 06:25:04;;;;;;;2.38;0.68;;;;;;;32.77;17.26;98904.84;5072374;28;21465;-78
2022/05/10 06:27:30;;;;;;;1.33;1.08;;;;;;;32.65;18.30;98898.06;5054482;28;20029;-78
2022/05/10 06:29:56;;;;;;;2.25;1.05;;;;;;;33.04;17.03;98911.34;5072308;28;20109;-78
2022/05/10 06:32:24;;;;;;;2.30;1.35;;;;;;;33.41;16.80;98898.63;5071614;28;20043;-78
2022/05/10 06:34:52;;;;;;;2.65;1.00;;;;;;;33.59;16.53;98897.78;5068508;28;20037;-78
2022/05/10 06:40:10;;;;;;;1.35;0.70;;;;;;;33.57;16.92;98908.88;5070625;28;20094;-78
2022/05/10 06:42:37;;;;;;;2.17;0.98;;;;;;;33.82;16.13;98897.06;5071816;28;20052;-79
2022/05/10 06:45:08;;;;;;;0.95;0.80;;;;;;;33.29;16.62;98905.28;5070002;28;20064;-78
2022/05/10 06:47:36;;;;;;;0.70;0.70;;;;;;;32.95;16.87;98907.69;5064736;28;20027;-78
2022/05/10 06:50:04;;;;;;;1.65;1.00;;;;;;;33.01;17.44;98900.09;5052039;28;20086;-78
2022/05/10 06:52:30;;;;;;;1.23;0.85;;;;;;;31.69;18.27;98909.78;5069268;28;20363;-78
2022/05/10 06:54:57;;;;;;;2.30;0.95;;;;;;;31.71;17.94;98904.41;5072722;28;20515;-79
2022/05/10 06:57:23;;;;;;;2.45;1.23;;;;;;;30.52;19.21;98913.31;5070607;28;20042;-78
2022/05/10 06:59:49;;;;;;;5.57;1.50;;;;;;;29.34;20.58;98911.06;5069873;28;20063;-78
2022/05/10 07:02:15;;;;;;;3.13;1.30;;;;;;;28.36;21.96;98911.78;5071912;28;20037;-79
2022/05/10 07:04:41;;;;;;;2.28;1.48;;;;;;;27.80;22.41;98917.59;5072879;28;20490;-78
2022/05/10 07:07:07;;;;;;;3.13;1.13;;;;;;;29.23;20.96;98914.22;5070131;28;20123;-78
2022/05/10 07:09:33;;;;;;;5.57;1.40;;;;;;;30.02;20.09;98916.22;5067068;28;20071;-78
2022/05/10 07:11:59;;;;;;;2.25;1.35;;;;;;;29.83;20.89;98912.38;5072077;28;20032;-78
2022/05/10 07:14:25;;;;;;;2.53;1.63;;;;;;;30.25;19.84;98915.84;5059789;28;20477;-78
2022/05/10 07:16:51;;;;;;;2.85;1.40;;;;;;;30.82;21.38;98916.72;5068743;28;20093;-79
2022/05/10 07:19:17;;;;;;;3.70;1.50;;;;;;;29.97;20.26;98911.13;5072307;28;20550;-78
2022/05/10 07:22:02;;;;;;;3.80;1.25;;;;;;;29.05;21.25;98911.13;5065001;28;20036;-79
2022/05/10 07:24:29;;;;;;;2.22;1.48;;;;;;;29.22;21.23;98906.97;5066154;28;20108;-79
2022/05/10 07:26:55;;;;;;;2.40;1.60;;;;;;;30.04;20.79;98910.88;5069855;28;20025;-78
2022/05/10 07:29:22;;;;;;;4.00;2.00;;;;;;;30.92;20.09;98902.19;5069777;28;20016;-79
2022/05/10 07:31:48;;;;;;;2.60;1.58;;;;;;;30.84;19.69;98911.38;5071565;28;20039;-78
2022/05/10 07:34:14;;;;;;;3.53;1.23;;;;;;;29.62;20.71;98903.75;5070707;28;20036;-78
2022/05/10 07:36:41;;;;;;;2.38;1.38;;;;;;;29.15;21.70;98904.31;5071243;28;20040;-79
2022/05/10 07:39:10;;;;;;;2.70;1.50;;;;;;;28.78;21.57;98907.84;5071614;28;20107;-79
2022/05/10 07:41:37;;;;;;;3.80;1.60;;;;;;;30.15;21.01;98916.22;5069262;28;20111;-79
2022/05/10 07:44:05;;;;;;;6.40;1.50;;;;;;;30.11;20.49;98912.72;5066161;28;20055;-78
2022/05/10 07:46:31;;;;;;;2.88;1.50;;;;;;;29.80;20.57;98915.34;5068942;28;20029;-78
2022/05/10 07:48:57;;;;;;;1.58;1.25;;;;;;;31.04;20.13;98912.66;5071220;28;20029;-79
2022/05/10 07:51:24;;;;;;;3.03;1.60;;;;;;;31.08;20.38;98910.50;5069487;28;20165;-79
2022/05/10 07:53:51;;;;;;;7.13;1.77;;;;;;;30.09;20.42;98913.94;5071166;28;20042;-78
2022/05/10 07:56:17;;;;;;;2.22;1.20;;;;;;;30.42;20.68;98914.47;5071759;28;20496;-78
2022/05/10 07:58:43;;;;;;;3.22;1.75;;;;;;;29.25;21.55;98908.13;5070248;28;20036;-78
2022/05/10 08:01:10;;;;;;;2.33;1.35;;;;;;;29.91;21.56;98905.25;5068994;28;20508;-78
2022/05/10 08:03:36;;;;;;;2.92;2.10;;;;;;;30.14;20.67;98908.94;5069511;28;20417;-79
2022/05/10 08:06:02;;;;;;;4.38;1.55;;;;;;;30.31;21.93;98901.91;5063707;28;20379;-79
2022/05/10 08:08:33;;;;;;;1.40;1.05;;;;;;;31.34;20.04;98902.63;5070574;28;20104;-79
2022/05/10 08:11:00;;;;;;;2.45;1.17;;;;;;;32.31;19.99;98901.94;5068565;28;20035;-79
2022/05/10 08:13:29;;;;;;;1.23;0.93;;;;;;;33.44;18.12;98903.34;5069558;28;20037;-79
2022/05/10 08:15:55;;;;;;;1.27;0.88;;;;;;;33.49;16.74;98895.44;5065698;28;20119;-79
2022/05/10 08:18:23;;;;;;;3.63;0.90;;;;;;;33.72;17.12;98886.22;5070433;28;20111;-79
2022/05/10 08:20:52;;;;;;;4.15;1.23;;;;;;;33.59;16.59;98894.16;5068815;28;20037;-78
2022/05/10 08:23:21;;;;;;;1.25;0.75;;;;;;;32.87;17.47;98898.69;5071378;28;20165;-79
2022/05/10 08:25:48;;;;;;;1.60;0.90;;;;;;;32.99;17.29;98896.94;5068866;28;20029;-79
2022/05/10 08:28:14;;;;;;;1.77;0.70;;;;;;;33.51;16.30;98890.06;5068187;28;20507;-79
2022/05/10 08:30:44;;;;;;;3.35;0.90;;;;;;;33.13;16.94;98894.25;5069373;28;20036;-79
2022/05/10 08:33:10;;;;;;;1.48;0.80;;;;;;;33.38;16.19;98890.25;5067841;28;20113;-79
2022/05/10 08:35:39;;;;;;;1.15;0.65;;;;;;;32.29;17.13;98889.44;5069976;28;20040;-79
2022/05/10 08:38:06;;;;;;;0.70;0.68;;;;;;;32.57;16.04;98886.22;5070349;28;20085;-79
2022/05/10 08:40:36;;;;;;;2.30;0.60;;;;;;;33.28;15.43;98880.94;5065143;28;20106;-79
2022/05/10 08:43:07;;;;;;;0.52;0.32;;;;;;;33.53;14.65;98876.94;5066758;28;20044;-79
2022/05/10 08:45:41;;;;;;;0.50;0.50;;;;;;;34.24;14.74;98877.06;5058836;28;20062;-79
2022/05/10 08:48:08;;;;;;;0.93;0.70;;;;;;;33.63;14.17;98878.47;5072196;28;20037;-79
2022/05/10 08:50:37;;;;;;;1.80;0.70;;;;;;;33.44;15.44;98876.94;5072926;28;22176;-79
2022/05/10 08:53:06;;;;;;;0.65;0.50;;;;;;;34.42;14.69;98881.88;5071815;28;20193;-79
2022/05/10 08:55:38;;;;;;;0.77;0.60;;;;;;;34.35;14.27;98883.03;5074158;28;20033;-79
2022/05/10 08:58:26;;;;;;;1.10;0.80;;;;;;;34.15;14.67;98874.28;5074034;28;20044;-79
2022/05/10 09:00:55;;;;;;;1.55;0.70;;;;;;;33.38;15.01;98876.00;5072415;28;20096;-79
2022/05/10 09:03:57;;;;;;;0.80;0.68;;;;;;;33.20;15.65;98874.00;5072087;28;20090;-79
2022/05/10 09:06:48;;;;;;;0.70;0.60;;;;;;;33.74;15.29;98872.25;5024550;28;20051;-79
2022/05/10 09:09:25;;;;;;;;;;;;;;;33.77;15.13;98871.31;5074412;28;20063;-79
2022/05/10 09:12:10;;;;;;;1.95;0.50;;;;;;;33.24;14.76;98857.53;5073872;28;19977;-79
2022/05/10 09:14:53;;;;;;;1.52;0.50;;;;;;;33.78;14.68;98853.72;5072251;28;20044;-79
2022/05/10 09:17:20;;;;;;;2.05;0.65;;;;;;;33.05;14.97;98861.69;5072502;28;20123;-78
2022/05/10 09:19:46;;;;;;;1.92;0.52;;;;;;;32.73;14.33;98856.66;5071898;28;20020;-78
2022/05/10 09:22:16;;;;;;;0.50;0.40;;;;;;;32.95;14.95;98862.97;5073669;28;20036;-78
2022/05/10 09:24:50;;;;;;;0.80;0.57;;;;;;;33.04;14.10;98854.44;5074202;28;20398;-79
2022/05/10 09:27:18;;;;;;;1.63;0.50;;;;;;;34.03;12.39;98847.59;5071779;28;20039;-79
2022/05/10 09:29:50;;;;;;;0.40;0.30;;;;;;;34.86;12.31;98845.69;5070510;28;20037;-79
2022/05/10 09:35:15;;;;;;;1.38;0.80;;;;;;;32.07;15.40;98842.06;5068262;28;20547;-79
2022/05/10 09:38:04;;;;;;;1.73;0.40;;;;;;;32.16;14.98;98840.50;5052611;28;20108;-79
2022/05/10 09:40:34;;;;;;;1.08;0.90;;;;;;;30.44;15.69;98837.50;5071801;28;20048;-79
2022/05/10 09:43:22;;;;;;;1.50;0.70;;;;;;;30.44;16.98;98837.50;5074243;28;20029;-79
2022/05/10 09:46:08;;;;;;;0.82;0.80;;;;;;;30.89;15.33;98832.19;5070579;28;20294;-79
2022/05/10 09:48:35;;;;;;;1.38;0.90;;;;;;;32.58;16.05;98819.53;5073128;28;20040;-79
2022/05/10 09:51:36;;;;;;;2.38;0.73;;;;;;;33.25;14.39;98819.28;5073373;28;20438;-79
2022/05/10 09:54:11;;;;;;;0.70;0.50;;;;;;;34.00;13.62;98817.16;5069169;28;20032;-79
2022/05/10 09:56:48;;;;;;;0.60;0.40;;;;;;;34.38;13.25;98818.53;5071534;28;20029;-79
2022/05/10 09:59:24;;;;;;;0.40;0.30;;;;;;;34.84;13.38;98824.63;5071515;28;20039;-79
2022/05/10 10:01:56;;;;;;;0.73;0.52;;;;;;;34.96;13.02;98821.47;5074222;28;20028;-79
2022/05/10 10:04:37;;;;;;;1.25;0.45;;;;;;;34.51;12.33;98817.00;5072346;28;20040;-79
2022/05/10 10:07:22;;;;;;;0.55;0.40;;;;;;;33.51;12.05;98810.31;5069695;28;20040;-79
2022/05/10 10:09:52;;;;;;;1.48;0.50;;;;;;;31.99;14.24;98811.59;5068241;28;20036;-79
2022/05/10 10:12:37;;;;;;;0.80;0.60;;;;;;;31.62;14.21;98807.03;5072566;28;20024;-79
2022/05/10 10:15:29;;;;;;;1.73;0.50;;;;;;;30.88;15.04;98810.75;5067337;28;20181;-80
2022/05/10 10:18:03;;;;;;;0.90;0.50;;;;;;;31.87;14.10;98809.63;5062683;28;20052;-79
2022/05/10 10:20:37;;;;;;;3.05;0.70;;;;;;;32.39;13.64;98803.72;5069726;28;20035;-79
2022/05/10 10:23:15;;;;;;;1.27;0.50;;;;;;;32.08;13.42;98800.22;5072226;28;20032;-79
2022/05/10 10:25:46;;;;;;;0.60;0.50;;;;;;;31.74;14.46;98794.78;5072750;28;20101;-79
2022/05/10 10:28:39;;;;;;;0.77;0.60;;;;;;;33.08;12.88;98792.44;5053776;28;20529;-79
2022/05/10 10:31:17;;;;;;;0.90;0.50;;;;;;;34.11;12.68;98802.41;5069950;28;20447;-79
2022/05/10 10:33:53;;;;;;;1.48;0.50;;;;;;;33.77;13.34;98788.69;5073088;28;20035;-79
2022/05/10 10:36:28;;;;;;;1.58;0.60;;;;;;;34.65;12.75;98786.94;5063022;28;20107;-79
2022/05/10 10:39:00;;;;;;;0.60;0.52;;;;;;;35.29;12.59;98782.13;5071309;28;20501;-80
2022/05/10 10:41:48;;;;;;;1.35;0.57;;;;;;;34.24;12.46;98779.38;5071603;28;20064;-79
2022/05/10 10:44:27;;;;;;;0.50;0.47;;;;;;;33.15;13.34;98777.06;5070220;28;20041;-80
2022/05/10 10:46:59;;;;;;;0.98;0.60;;;;;;;33.68;13.30;98777.34;5071189;28;20036;-80
2022/05/10 10:49:41;;;;;;;0.40;0.40;;;;;;;33.95;13.77;98769.41;5068346;28;20028;-79
2022/05/10 10:52:08;;;;;;;0.68;0.40;;;;;;;32.85;14.57;98763.88;5070983;28;20056;-80
2022/05/10 10:54:36;;;;;;;1.15;0.70;;;;;;;31.75;16.01;98756.59;5072915;28;20040;-80
2022/05/10 10:57:39;;;;;;;1.75;0.60;;;;;;;32.19;15.00;98757.13;5070050;28;20020;-79
2022/05/10 11:00:19;;;;;;;1.00;0.47;;;;;;;32.31;14.49;98750.50;5072673;28;20033;-79
2022/05/10 11:03:05;;;;;;;1.97;0.70;;;;;;;32.00;14.75;98753.47;5071842;28;20064;-80
2022/05/10 11:05:47;;;;;;;0.93;0.60;;;;;;;31.34;15.67;98735.94;5064658;28;20380;-79
2022/05/10 11:08:46;;;;;;;2.03;0.80;;;;;;;31.47;14.62;98738.69;5069606;28;20137;-79
2022/05/10 11:11:38;;;;;;;2.60;0.65;;;;;;;32.43;14.43;98741.81;5066967;28;20052;-79
2022/05/10 11:14:16;;;;;;;1.05;0.63;;;;;;;32.46;14.92;98734.38;5071468;28;20394;-79
2022/05/10 11:17:01;;;;;;;1.10;0.70;;;;;;;32.08;15.91;98732.03;5068334;28;20116;-80
2022/05/10 11:20:04;;;;;;;2.08;0.80;;;;;;;32.45;15.38;98732.78;5069614;28;20090;-80
2022/05/10 11:22:36;;;;;;;0.80;0.65;;;;;;;33.36;15.27;98736.97;5070295;28;20504;-80
2022/05/10 11:25:11;;;;;;;0.75;0.40;;;;;;;34.11;13.98;98730.34;5060020;28;20032;-79
2022/05/10 11:28:04;;;;;;;1.40;0.70;;;;;;;34.83;13.54;98717.47;5071314;28;20044;-79
2022/05/10 11:30:50;;;;;;;1.08;0.63;;;;;;;34.00;14.09;98720.25;5068241;28;20447;-80
2022/05/10 11:33:38;;;;;;;0.98;0.70;;;;;;;33.77;14.37;98715.38;5071224;28;20040;-80
2022/05/10 11:36:16;;;;;;;0.52;0.52;;;;;;;33.30;14.13;98721.81;5071495;28;20100;-79
2022/05/10 11:39:13;;;;;;;1.00;0.70;;;;;;;33.70;12.84;98717.84;5067560;28;20037;-80
2022/05/10 11:42:24;;;;;;;0.55;0.55;;;;;;;34.42;14.14;98705.06;5072022;28;20035;-80
2022/05/10 11:45:27;;;;;;;1.60;0.52;;;;;;;34.66;13.94;98706.56;5059929;28;20076;-80
2022/05/10 11:47:59;;;;;;;1.23;0.50;;;;;;;35.12;13.68;98700.34;5066705;28;20021;-79
2022/05/10 11:54:20;;;;;;;3.90;1.05;;;;;;;35.32;11.54;98686.88;5069185;28;20047;-80
2022/05/10 11:56:50;;;;;;;2.45;0.70;;;;;;;32.50;14.32;98690.34;5072027;28;20036;-80
2022/05/10 11:59:23;;;;;;;0.95;0.93;;;;;;;33.88;12.52;98695.69;5068362;28;20119;-80
2022/05/10 12:01:52;;;;;;;0.50;0.50;;;;;;;34.45;12.47;98687.72;5066839;28;20028;-80
2022/05/10 12:04:44;;;;;;;2.20;0.75;;;;;;;31.37;13.73;98688.81;5071713;28;20037;-80
2022/05/10 12:07:19;;;;;;;0.65;0.60;;;;;;;33.19;13.86;98686.59;5068072;28;20025;-80
2022/05/10 12:10:27;;;;;;;1.80;0.60;;;;;;;33.86;12.27;98680.34;5068709;28;20040;-80